sensor_id;sensor_type;location;lat;lon;timestamp;P1;durP1;ratioP1;P2;durP2;ratioP2
22995;SDS011;11664;49.774;8.650;2023-03-01T00:00:03;8.73;;;5.70;;
22995;SDS011;11664;49.774;8.650;2023-03-01T00:02:32;10.10;;;6.95;;
22995;SDS011;11664;49.774;8.650;2023-03-01T00:05:01;12.20;;;7.20;;
22995;SDS011;11664;49.774;8.650;2023-03-01T00:07:27;14.00;;;7.13;;
22995;SDS011;11664;49.774;8.650;2023-03-01T00:12:47;13.70;;;7.07;;
22995;SDS011;11664;49.774;8.650;2023-03-01T00:15:18;10.68;;;7.40;;
22995;SDS011;11664;49.774;8.650;2023-03-01T00:17:47;11.52;;;7.07;;
22995;SDS011;11664;49.774;8.650;2023-03-01T00:20:15;11.80;;;6.38;;
22995;SDS011;11664;49.774;8.650;2023-03-01T00:22:41;11.05;;;7.55;;
22995;SDS011;11664;49.774;8.650;2023-03-01T00:25:07;10.15;;;7.07;;
22995;SDS011;11664;49.774;8.650;2023-03-01T00:27:39;11.30;;;6.93;;
22995;SDS011;11664;49.774;8.650;2023-03-01T00:30:10;10.23;;;6.75;;
22995;SDS011;11664;49.774;8.650;2023-03-01T00:32:39;14.32;;;7.18;;
22995;SDS011;11664;49.774;8.650;2023-03-01T00:35:05;10.85;;;7.00;;
22995;SDS011;11664;49.774;8.650;2023-03-01T00:37:40;11.35;;;6.95;;
22995;SDS011;11664;49.774;8.650;2023-03-01T00:40:06;12.25;;;7.30;;
22995;SDS011;11664;49.774;8.650;2023-03-01T00:42:32;11.05;;;7.30;;
22995;SDS011;11664;49.774;8.650;2023-03-01T00:47:55;14.40;;;7.50;;
22995;SDS011;11664;49.774;8.650;2023-03-01T00:50:26;12.25;;;6.45;;
22995;SDS011;11664;49.774;8.650;2023-03-01T00:53:19;8.82;;;6.65;;
22995;SDS011;11664;49.774;8.650;2023-03-01T00:55:48;11.10;;;7.28;;
22995;SDS011;11664;49.774;8.650;2023-03-01T00:58:20;8.63;;;6.43;;
22995;SDS011;11664;49.774;8.650;2023-03-01T01:00:45;11.45;;;6.13;;
22995;SDS011;11664;49.774;8.650;2023-03-01T01:03:14;11.43;;;6.70;;
22995;SDS011;11664;49.774;8.650;2023-03-01T01:05:39;10.82;;;6.78;;
22995;SDS011;11664;49.774;8.650;2023-03-01T01:08:20;10.45;;;6.18;;
22995;SDS011;11664;49.774;8.650;2023-03-01T01:11:01;19.23;;;6.97;;
22995;SDS011;11664;49.774;8.650;2023-03-01T01:13:36;8.77;;;6.65;;
22995;SDS011;11664;49.774;8.650;2023-03-01T01:16:08;7.68;;;6.25;;
22995;SDS011;11664;49.774;8.650;2023-03-01T01:18:37;13.45;;;7.18;;
22995;SDS011;11664;49.774;8.650;2023-03-01T01:21:13;8.80;;;6.45;;
22995;SDS011;11664;49.774;8.650;2023-03-01T01:23:44;11.57;;;7.65;;
22995;SDS011;11664;49.774;8.650;2023-03-01T01:26:18;9.65;;;6.60;;
22995;SDS011;11664;49.774;8.650;2023-03-01T01:28:46;10.82;;;6.57;;
22995;SDS011;11664;49.774;8.650;2023-03-01T01:31:12;10.48;;;6.82;;
22995;SDS011;11664;49.774;8.650;2023-03-01T01:33:46;13.85;;;7.15;;
22995;SDS011;11664;49.774;8.650;2023-03-01T01:36:12;12.60;;;7.57;;
22995;SDS011;11664;49.774;8.650;2023-03-01T01:38:38;10.50;;;7.40;;
22995;SDS011;11664;49.774;8.650;2023-03-01T01:41:10;7.82;;;6.95;;
22995;SDS011;11664;49.774;8.650;2023-03-01T01:43:38;11.32;;;6.63;;
22995;SDS011;11664;49.774;8.650;2023-03-01T01:51:48;8.98;;;6.43;;
22995;SDS011;11664;49.774;8.650;2023-03-01T01:54:22;13.02;;;7.65;;
22995;SDS011;11664;49.774;8.650;2023-03-01T01:57:12;10.52;;;6.85;;
22995;SDS011;11664;49.774;8.650;2023-03-01T01:59:45;13.32;;;6.65;;
22995;SDS011;11664;49.774;8.650;2023-03-01T02:02:18;9.82;;;7.43;;
22995;SDS011;11664;49.774;8.650;2023-03-01T02:05:01;11.48;;;6.75;;
22995;SDS011;11664;49.774;8.650;2023-03-01T02:07:39;12.05;;;7.90;;
22995;SDS011;11664;49.774;8.650;2023-03-01T02:13:28;10.13;;;7.13;;
22995;SDS011;11664;49.774;8.650;2023-03-01T02:16:03;15.20;;;6.78;;
22995;SDS011;11664;49.774;8.650;2023-03-01T02:18:29;12.55;;;7.10;;
22995;SDS011;11664;49.774;8.650;2023-03-01T02:23:59;11.80;;;6.95;;
22995;SDS011;11664;49.774;8.650;2023-03-01T02:26:58;11.05;;;7.03;;
22995;SDS011;11664;49.774;8.650;2023-03-01T02:29:28;10.38;;;6.00;;
22995;SDS011;11664;49.774;8.650;2023-03-01T02:31:54;10.57;;;7.35;;
22995;SDS011;11664;49.774;8.650;2023-03-01T02:34:26;7.85;;;6.55;;
22995;SDS011;11664;49.774;8.650;2023-03-01T02:36:58;9.70;;;6.60;;
22995;SDS011;11664;49.774;8.650;2023-03-01T02:39:34;11.57;;;7.05;;
22995;SDS011;11664;49.774;8.650;2023-03-01T02:42:13;9.43;;;7.22;;
22995;SDS011;11664;49.774;8.650;2023-03-01T02:44:48;14.52;;;8.10;;
22995;SDS011;11664;49.774;8.650;2023-03-01T02:53:35;13.70;;;7.45;;
22995;SDS011;11664;49.774;8.650;2023-03-01T02:56:24;13.82;;;7.55;;
22995;SDS011;11664;49.774;8.650;2023-03-01T02:58:50;9.68;;;7.38;;
22995;SDS011;11664;49.774;8.650;2023-03-01T03:01:17;14.90;;;7.72;;
22995;SDS011;11664;49.774;8.650;2023-03-01T03:03:49;11.18;;;6.85;;
22995;SDS011;11664;49.774;8.650;2023-03-01T03:06:15;17.10;;;8.48;;
22995;SDS011;11664;49.774;8.650;2023-03-01T03:08:52;11.05;;;7.22;;
22995;SDS011;11664;49.774;8.650;2023-03-01T03:11:21;8.40;;;7.22;;
22995;SDS011;11664;49.774;8.650;2023-03-01T03:13:50;14.35;;;6.97;;
22995;SDS011;11664;49.774;8.650;2023-03-01T03:16:23;12.73;;;8.38;;
22995;SDS011;11664;49.774;8.650;2023-03-01T03:18:55;11.75;;;7.50;;
22995;SDS011;11664;49.774;8.650;2023-03-01T03:21:30;8.88;;;6.85;;
22995;SDS011;11664;49.774;8.650;2023-03-01T03:24:16;10.50;;;7.35;;
22995;SDS011;11664;49.774;8.650;2023-03-01T03:26:48;11.55;;;7.88;;
22995;SDS011;11664;49.774;8.650;2023-03-01T03:29:16;16.38;;;8.45;;
22995;SDS011;11664;49.774;8.650;2023-03-01T03:31:45;12.98;;;8.60;;
22995;SDS011;11664;49.774;8.650;2023-03-01T03:34:16;10.57;;;7.55;;
22995;SDS011;11664;49.774;8.650;2023-03-01T03:39:08;12.65;;;7.30;;
22995;SDS011;11664;49.774;8.650;2023-03-01T03:41:34;15.43;;;7.68;;
22995;SDS011;11664;49.774;8.650;2023-03-01T03:44:00;12.68;;;7.57;;
22995;SDS011;11664;49.774;8.650;2023-03-01T03:46:25;13.30;;;7.75;;
22995;SDS011;11664;49.774;8.650;2023-03-01T03:48:53;9.00;;;7.00;;
22995;SDS011;11664;49.774;8.650;2023-03-01T03:51:25;9.03;;;6.37;;
22995;SDS011;11664;49.774;8.650;2023-03-01T03:53:54;14.77;;;7.80;;
22995;SDS011;11664;49.774;8.650;2023-03-01T03:56:25;11.82;;;8.35;;
22995;SDS011;11664;49.774;8.650;2023-03-01T03:58:51;13.68;;;8.50;;
22995;SDS011;11664;49.774;8.650;2023-03-01T04:01:20;15.52;;;8.68;;
22995;SDS011;11664;49.774;8.650;2023-03-01T04:03:45;13.52;;;7.85;;
22995;SDS011;11664;49.774;8.650;2023-03-01T04:06:11;10.32;;;7.90;;
22995;SDS011;11664;49.774;8.650;2023-03-01T04:08:41;10.05;;;7.45;;
22995;SDS011;11664;49.774;8.650;2023-03-01T04:11:06;15.13;;;7.97;;
22995;SDS011;11664;49.774;8.650;2023-03-01T04:13:55;16.70;;;8.30;;
22995;SDS011;11664;49.774;8.650;2023-03-01T04:16:25;14.18;;;8.38;;
22995;SDS011;11664;49.774;8.650;2023-03-01T04:18:54;11.00;;;7.10;;
22995;SDS011;11664;49.774;8.650;2023-03-01T04:21:19;11.93;;;7.20;;
22995;SDS011;11664;49.774;8.650;2023-03-01T04:23:51;11.40;;;8.07;;
22995;SDS011;11664;49.774;8.650;2023-03-01T04:26:23;10.15;;;7.53;;
22995;SDS011;11664;49.774;8.650;2023-03-01T04:31:39;14.75;;;8.82;;
22995;SDS011;11664;49.774;8.650;2023-03-01T04:34:17;12.63;;;7.72;;
22995;SDS011;11664;49.774;8.650;2023-03-01T04:36:46;11.98;;;8.00;;
22995;SDS011;11664;49.774;8.650;2023-03-01T04:39:20;9.60;;;7.53;;
22995;SDS011;11664;49.774;8.650;2023-03-01T04:41:52;17.38;;;9.25;;
22995;SDS011;11664;49.774;8.650;2023-03-01T04:44:20;12.45;;;8.20;;
22995;SDS011;11664;49.774;8.650;2023-03-01T04:46:48;14.40;;;8.57;;
22995;SDS011;11664;49.774;8.650;2023-03-01T04:49:14;17.75;;;8.48;;
22995;SDS011;11664;49.774;8.650;2023-03-01T04:51:44;15.57;;;8.85;;
22995;SDS011;11664;49.774;8.650;2023-03-01T04:54:12;12.70;;;8.30;;
22995;SDS011;11664;49.774;8.650;2023-03-01T04:56:44;13.55;;;8.57;;
22995;SDS011;11664;49.774;8.650;2023-03-01T04:59:18;12.65;;;8.55;;
22995;SDS011;11664;49.774;8.650;2023-03-01T05:01:47;12.43;;;8.50;;
22995;SDS011;11664;49.774;8.650;2023-03-01T05:04:14;12.63;;;9.10;;
22995;SDS011;11664;49.774;8.650;2023-03-01T05:06:42;19.52;;;9.13;;
22995;SDS011;11664;49.774;8.650;2023-03-01T05:09:09;22.65;;;8.98;;
22995;SDS011;11664;49.774;8.650;2023-03-01T05:14:27;16.90;;;10.98;;
22995;SDS011;11664;49.774;8.650;2023-03-01T05:16:53;16.25;;;9.43;;
22995;SDS011;11664;49.774;8.650;2023-03-01T05:19:21;14.80;;;10.40;;
22995;SDS011;11664;49.774;8.650;2023-03-01T05:21:47;14.30;;;10.82;;
22995;SDS011;11664;49.774;8.650;2023-03-01T05:24:33;17.77;;;10.48;;
22995;SDS011;11664;49.774;8.650;2023-03-01T05:27:09;13.85;;;10.15;;
22995;SDS011;11664;49.774;8.650;2023-03-01T05:29:35;12.27;;;9.80;;
22995;SDS011;11664;49.774;8.650;2023-03-01T05:32:01;13.35;;;10.10;;
22995;SDS011;11664;49.774;8.650;2023-03-01T05:34:29;14.20;;;9.57;;
22995;SDS011;11664;49.774;8.650;2023-03-01T05:37:00;13.15;;;9.10;;
22995;SDS011;11664;49.774;8.650;2023-03-01T05:39:27;12.68;;;9.32;;
22995;SDS011;11664;49.774;8.650;2023-03-01T05:41:55;18.35;;;8.90;;
22995;SDS011;11664;49.774;8.650;2023-03-01T05:44:23;12.95;;;8.43;;
22995;SDS011;11664;49.774;8.650;2023-03-01T05:46:52;12.55;;;8.25;;
22995;SDS011;11664;49.774;8.650;2023-03-01T05:49:29;14.85;;;8.52;;
22995;SDS011;11664;49.774;8.650;2023-03-01T05:52:06;17.10;;;8.05;;
22995;SDS011;11664;49.774;8.650;2023-03-01T05:54:51;15.75;;;8.73;;
22995;SDS011;11664;49.774;8.650;2023-03-01T05:57:23;15.25;;;8.52;;
22995;SDS011;11664;49.774;8.650;2023-03-01T05:59:51;12.07;;;7.80;;
22995;SDS011;11664;49.774;8.650;2023-03-01T06:02:17;12.98;;;8.73;;
22995;SDS011;11664;49.774;8.650;2023-03-01T06:04:48;11.52;;;7.93;;
22995;SDS011;11664;49.774;8.650;2023-03-01T06:07:23;14.57;;;7.80;;
22995;SDS011;11664;49.774;8.650;2023-03-01T06:10:07;12.90;;;7.95;;
22995;SDS011;11664;49.774;8.650;2023-03-01T06:12:36;13.60;;;8.95;;
22995;SDS011;11664;49.774;8.650;2023-03-01T06:15:02;16.55;;;9.50;;
22995;SDS011;11664;49.774;8.650;2023-03-01T06:17:32;13.02;;;8.77;;
22995;SDS011;11664;49.774;8.650;2023-03-01T06:20:12;13.13;;;8.07;;
22995;SDS011;11664;49.774;8.650;2023-03-01T06:22:43;18.23;;;9.25;;
22995;SDS011;11664;49.774;8.650;2023-03-01T06:25:10;13.15;;;7.82;;
22995;SDS011;11664;49.774;8.650;2023-03-01T06:27:37;13.93;;;8.48;;
22995;SDS011;11664;49.774;8.650;2023-03-01T06:30:12;12.98;;;8.23;;
22995;SDS011;11664;49.774;8.650;2023-03-01T06:32:40;17.70;;;9.18;;
22995;SDS011;11664;49.774;8.650;2023-03-01T06:35:10;16.33;;;8.60;;
22995;SDS011;11664;49.774;8.650;2023-03-01T06:37:37;12.88;;;8.50;;
22995;SDS011;11664;49.774;8.650;2023-03-01T06:40:04;14.73;;;9.20;;
22995;SDS011;11664;49.774;8.650;2023-03-01T06:42:33;15.25;;;8.68;;
22995;SDS011;11664;49.774;8.650;2023-03-01T06:45:09;13.20;;;8.32;;
22995;SDS011;11664;49.774;8.650;2023-03-01T06:47:35;13.15;;;8.25;;
22995;SDS011;11664;49.774;8.650;2023-03-01T06:50:01;10.35;;;7.60;;
22995;SDS011;11664;49.774;8.650;2023-03-01T06:52:30;10.45;;;7.30;;
22995;SDS011;11664;49.774;8.650;2023-03-01T06:54:56;15.95;;;9.05;;
22995;SDS011;11664;49.774;8.650;2023-03-01T06:57:22;14.43;;;9.40;;
22995;SDS011;11664;49.774;8.650;2023-03-01T06:59:51;15.77;;;8.70;;
22995;SDS011;11664;49.774;8.650;2023-03-01T07:02:16;15.00;;;9.05;;
22995;SDS011;11664;49.774;8.650;2023-03-01T07:04:42;15.85;;;9.02;;
22995;SDS011;11664;49.774;8.650;2023-03-01T07:07:14;12.60;;;8.25;;
22995;SDS011;11664;49.774;8.650;2023-03-01T07:09:39;15.35;;;8.30;;
22995;SDS011;11664;49.774;8.650;2023-03-01T07:12:11;12.75;;;8.57;;
22995;SDS011;11664;49.774;8.650;2023-03-01T07:14:46;14.05;;;9.02;;
22995;SDS011;11664;49.774;8.650;2023-03-01T07:17:14;12.63;;;8.23;;
22995;SDS011;11664;49.774;8.650;2023-03-01T07:19:40;14.95;;;8.90;;
22995;SDS011;11664;49.774;8.650;2023-03-01T07:22:11;17.35;;;9.40;;
22995;SDS011;11664;49.774;8.650;2023-03-01T07:24:41;21.15;;;9.55;;
22995;SDS011;11664;49.774;8.650;2023-03-01T07:27:12;13.52;;;8.63;;
22995;SDS011;11664;49.774;8.650;2023-03-01T07:29:38;12.70;;;8.10;;
22995;SDS011;11664;49.774;8.650;2023-03-01T07:32:04;13.90;;;8.85;;
22995;SDS011;11664;49.774;8.650;2023-03-01T07:34:33;13.65;;;7.63;;
22995;SDS011;11664;49.774;8.650;2023-03-01T07:36:59;13.15;;;8.13;;
22995;SDS011;11664;49.774;8.650;2023-03-01T07:39:33;16.90;;;8.75;;
22995;SDS011;11664;49.774;8.650;2023-03-01T07:41:59;16.75;;;8.95;;
22995;SDS011;11664;49.774;8.650;2023-03-01T07:44:37;15.45;;;8.75;;
22995;SDS011;11664;49.774;8.650;2023-03-01T07:47:05;13.90;;;8.85;;
22995;SDS011;11664;49.774;8.650;2023-03-01T07:49:37;17.77;;;8.48;;
22995;SDS011;11664;49.774;8.650;2023-03-01T07:52:12;13.07;;;7.95;;
22995;SDS011;11664;49.774;8.650;2023-03-01T07:54:43;12.70;;;8.32;;
22995;SDS011;11664;49.774;8.650;2023-03-01T07:57:09;12.93;;;8.13;;
22995;SDS011;11664;49.774;8.650;2023-03-01T07:59:44;12.13;;;7.68;;
22995;SDS011;11664;49.774;8.650;2023-03-01T08:02:13;14.77;;;8.05;;
22995;SDS011;11664;49.774;8.650;2023-03-01T08:04:52;16.50;;;8.38;;
22995;SDS011;11664;49.774;8.650;2023-03-01T08:07:20;10.32;;;7.28;;
22995;SDS011;11664;49.774;8.650;2023-03-01T08:09:46;14.77;;;7.93;;
22995;SDS011;11664;49.774;8.650;2023-03-01T08:12:11;13.15;;;7.63;;
22995;SDS011;11664;49.774;8.650;2023-03-01T08:14:40;14.98;;;8.57;;
22995;SDS011;11664;49.774;8.650;2023-03-01T08:17:08;13.40;;;7.72;;
22995;SDS011;11664;49.774;8.650;2023-03-01T08:19:40;12.18;;;7.38;;
22995;SDS011;11664;49.774;8.650;2023-03-01T08:22:08;11.97;;;7.83;;
22995;SDS011;11664;49.774;8.650;2023-03-01T08:24:46;15.02;;;7.65;;
22995;SDS011;11664;49.774;8.650;2023-03-01T08:27:24;11.75;;;7.72;;
22995;SDS011;11664;49.774;8.650;2023-03-01T08:29:52;11.98;;;7.35;;
22995;SDS011;11664;49.774;8.650;2023-03-01T08:32:18;14.45;;;8.88;;
22995;SDS011;11664;49.774;8.650;2023-03-01T08:34:46;13.85;;;8.38;;
22995;SDS011;11664;49.774;8.650;2023-03-01T08:37:15;15.95;;;8.10;;
22995;SDS011;11664;49.774;8.650;2023-03-01T08:39:40;12.30;;;8.35;;
22995;SDS011;11664;49.774;8.650;2023-03-01T08:42:06;13.13;;;8.13;;
22995;SDS011;11664;49.774;8.650;2023-03-01T08:44:31;16.25;;;7.60;;
22995;SDS011;11664;49.774;8.650;2023-03-01T08:47:00;16.52;;;8.38;;
22995;SDS011;11664;49.774;8.650;2023-03-01T08:49:30;14.65;;;8.38;;
22995;SDS011;11664;49.774;8.650;2023-03-01T08:51:57;17.98;;;7.18;;
22995;SDS011;11664;49.774;8.650;2023-03-01T08:54:23;13.00;;;7.38;;
22995;SDS011;11664;49.774;8.650;2023-03-01T08:56:48;16.20;;;8.43;;
22995;SDS011;11664;49.774;8.650;2023-03-01T08:59:15;15.23;;;8.57;;
22995;SDS011;11664;49.774;8.650;2023-03-01T09:01:45;14.00;;;7.55;;
22995;SDS011;11664;49.774;8.650;2023-03-01T09:04:16;14.20;;;8.77;;
22995;SDS011;11664;49.774;8.650;2023-03-01T09:06:48;11.07;;;7.55;;
22995;SDS011;11664;49.774;8.650;2023-03-01T09:09:14;16.35;;;8.18;;
22995;SDS011;11664;49.774;8.650;2023-03-01T09:11:50;15.20;;;7.95;;
22995;SDS011;11664;49.774;8.650;2023-03-01T09:14:16;12.80;;;7.03;;
22995;SDS011;11664;49.774;8.650;2023-03-01T09:19:40;13.85;;;7.82;;
22995;SDS011;11664;49.774;8.650;2023-03-01T09:22:05;11.43;;;7.10;;
22995;SDS011;11664;49.774;8.650;2023-03-01T09:24:31;13.00;;;8.23;;
22995;SDS011;11664;49.774;8.650;2023-03-01T09:27:06;10.52;;;7.50;;
22995;SDS011;11664;49.774;8.650;2023-03-01T09:29:36;10.95;;;7.43;;
22995;SDS011;11664;49.774;8.650;2023-03-01T09:32:02;15.52;;;8.07;;
22995;SDS011;11664;49.774;8.650;2023-03-01T09:34:32;16.73;;;7.68;;
22995;SDS011;11664;49.774;8.650;2023-03-01T09:37:18;12.60;;;7.28;;
22995;SDS011;11664;49.774;8.650;2023-03-01T09:39:44;15.10;;;8.93;;
22995;SDS011;11664;49.774;8.650;2023-03-01T09:42:10;12.45;;;7.63;;
22995;SDS011;11664;49.774;8.650;2023-03-01T09:44:45;14.30;;;7.93;;
22995;SDS011;11664;49.774;8.650;2023-03-01T09:47:22;11.23;;;7.55;;
22995;SDS011;11664;49.774;8.650;2023-03-01T09:52:50;14.75;;;7.95;;
22995;SDS011;11664;49.774;8.650;2023-03-01T10:04:47;15.00;;;8.75;;
22995;SDS011;11664;49.774;8.650;2023-03-01T10:13:19;14.68;;;8.77;;
22995;SDS011;11664;49.774;8.650;2023-03-01T10:15:56;16.30;;;8.80;;
22995;SDS011;11664;49.774;8.650;2023-03-01T10:18:33;15.75;;;9.07;;
22995;SDS011;11664;49.774;8.650;2023-03-01T10:21:22;15.32;;;7.53;;
22995;SDS011;11664;49.774;8.650;2023-03-01T10:27:02;15.70;;;8.60;;
22995;SDS011;11664;49.774;8.650;2023-03-01T10:29:46;17.15;;;9.52;;
22995;SDS011;11664;49.774;8.650;2023-03-01T10:32:26;16.67;;;9.07;;
22995;SDS011;11664;49.774;8.650;2023-03-01T10:34:52;19.95;;;8.88;;
22995;SDS011;11664;49.774;8.650;2023-03-01T10:37:21;17.75;;;9.32;;
22995;SDS011;11664;49.774;8.650;2023-03-01T10:40:01;14.48;;;8.43;;
22995;SDS011;11664;49.774;8.650;2023-03-01T10:42:52;17.58;;;9.07;;
22995;SDS011;11664;49.774;8.650;2023-03-01T10:51:06;23.95;;;8.82;;
22995;SDS011;11664;49.774;8.650;2023-03-01T10:53:42;16.88;;;9.02;;
22995;SDS011;11664;49.774;8.650;2023-03-01T10:56:16;14.95;;;8.60;;
22995;SDS011;11664;49.774;8.650;2023-03-01T11:05:13;15.45;;;8.77;;
22995;SDS011;11664;49.774;8.650;2023-03-01T11:07:54;18.10;;;8.68;;
22995;SDS011;11664;49.774;8.650;2023-03-01T11:10:34;13.35;;;8.00;;
22995;SDS011;11664;49.774;8.650;2023-03-01T11:15:58;14.45;;;8.30;;
22995;SDS011;11664;49.774;8.650;2023-03-01T11:18:32;15.60;;;8.23;;
22995;SDS011;11664;49.774;8.650;2023-03-01T11:20:58;15.77;;;8.10;;
22995;SDS011;11664;49.774;8.650;2023-03-01T11:23:27;20.25;;;9.20;;
22995;SDS011;11664;49.774;8.650;2023-03-01T11:26:00;12.75;;;7.75;;
22995;SDS011;11664;49.774;8.650;2023-03-01T11:28:29;14.68;;;7.47;;
22995;SDS011;11664;49.774;8.650;2023-03-01T11:39:24;12.70;;;7.90;;
22995;SDS011;11664;49.774;8.650;2023-03-01T11:44:49;16.67;;;8.73;;
22995;SDS011;11664;49.774;8.650;2023-03-01T11:50:26;13.30;;;8.00;;
22995;SDS011;11664;49.774;8.650;2023-03-01T12:06:45;11.18;;;7.50;;
22995;SDS011;11664;49.774;8.650;2023-03-01T12:09:38;12.48;;;8.05;;
22995;SDS011;11664;49.774;8.650;2023-03-01T12:21:10;12.57;;;7.45;;
22995;SDS011;11664;49.774;8.650;2023-03-01T12:23:47;14.68;;;7.95;;
22995;SDS011;11664;49.774;8.650;2023-03-01T12:26:34;12.63;;;8.23;;
22995;SDS011;11664;49.774;8.650;2023-03-01T12:35:21;15.32;;;8.05;;
22995;SDS011;11664;49.774;8.650;2023-03-01T12:51:44;15.10;;;7.13;;
22995;SDS011;11664;49.774;8.650;2023-03-01T12:54:25;13.63;;;5.55;;
22995;SDS011;11664;49.774;8.650;2023-03-01T12:57:18;12.25;;;7.07;;
22995;SDS011;11664;49.774;8.650;2023-03-01T13:03:10;13.70;;;6.13;;
22995;SDS011;11664;49.774;8.650;2023-03-01T13:08:49;15.43;;;7.35;;
22995;SDS011;11664;49.774;8.650;2023-03-01T13:14:44;10.75;;;6.30;;
22995;SDS011;11664;49.774;8.650;2023-03-01T13:17:29;12.35;;;6.90;;
22995;SDS011;11664;49.774;8.650;2023-03-01T13:19:57;10.25;;;6.20;;
22995;SDS011;11664;49.774;8.650;2023-03-01T13:22:28;7.88;;;6.03;;
22995;SDS011;11664;49.774;8.650;2023-03-01T13:31:03;9.45;;;5.47;;
22995;SDS011;11664;49.774;8.650;2023-03-01T13:33:43;8.55;;;6.60;;
22995;SDS011;11664;49.774;8.650;2023-03-01T13:39:02;10.85;;;6.30;;
22995;SDS011;11664;49.774;8.650;2023-03-01T13:49:37;10.05;;;6.53;;
22995;SDS011;11664;49.774;8.650;2023-03-01T13:55:05;7.13;;;5.80;;
22995;SDS011;11664;49.774;8.650;2023-03-01T13:57:55;8.80;;;6.30;;
22995;SDS011;11664;49.774;8.650;2023-03-01T14:00:40;11.18;;;6.75;;
22995;SDS011;11664;49.774;8.650;2023-03-01T14:03:09;7.43;;;6.05;;
22995;SDS011;11664;49.774;8.650;2023-03-01T14:05:38;10.18;;;5.55;;
22995;SDS011;11664;49.774;8.650;2023-03-01T14:08:13;7.07;;;5.97;;
22995;SDS011;11664;49.774;8.650;2023-03-01T14:10:59;10.18;;;6.50;;
22995;SDS011;11664;49.774;8.650;2023-03-01T14:19:35;9.23;;;6.00;;
22995;SDS011;11664;49.774;8.650;2023-03-01T14:25:22;9.27;;;5.97;;
22995;SDS011;11664;49.774;8.650;2023-03-01T14:27:51;9.90;;;6.47;;
22995;SDS011;11664;49.774;8.650;2023-03-01T14:30:31;8.65;;;6.13;;
22995;SDS011;11664;49.774;8.650;2023-03-01T14:36:08;8.02;;;5.35;;
22995;SDS011;11664;49.774;8.650;2023-03-01T14:41:09;9.18;;;6.00;;
22995;SDS011;11664;49.774;8.650;2023-03-01T14:43:50;7.43;;;5.10;;
22995;SDS011;11664;49.774;8.650;2023-03-01T14:46:31;6.38;;;4.97;;
22995;SDS011;11664;49.774;8.650;2023-03-01T14:49:22;9.77;;;5.43;;
22995;SDS011;11664;49.774;8.650;2023-03-01T14:51:55;6.03;;;4.55;;
22995;SDS011;11664;49.774;8.650;2023-03-01T14:57:17;6.85;;;5.53;;
22995;SDS011;11664;49.774;8.650;2023-03-01T14:59:46;7.90;;;5.05;;
22995;SDS011;11664;49.774;8.650;2023-03-01T15:02:20;6.45;;;5.18;;
22995;SDS011;11664;49.774;8.650;2023-03-01T15:04:55;6.15;;;5.05;;
22995;SDS011;11664;49.774;8.650;2023-03-01T15:07:23;10.68;;;5.80;;
22995;SDS011;11664;49.774;8.650;2023-03-01T15:09:59;7.07;;;5.93;;
22995;SDS011;11664;49.774;8.650;2023-03-01T15:12:34;6.38;;;5.50;;
22995;SDS011;11664;49.774;8.650;2023-03-01T15:17:48;8.57;;;5.72;;
22995;SDS011;11664;49.774;8.650;2023-03-01T15:20:20;6.90;;;5.40;;
22995;SDS011;11664;49.774;8.650;2023-03-01T15:22:56;7.28;;;5.43;;
22995;SDS011;11664;49.774;8.650;2023-03-01T15:25:23;10.48;;;5.63;;
22995;SDS011;11664;49.774;8.650;2023-03-01T15:28:01;6.70;;;5.05;;
22995;SDS011;11664;49.774;8.650;2023-03-01T15:30:46;6.53;;;5.60;;
22995;SDS011;11664;49.774;8.650;2023-03-01T15:33:30;9.93;;;5.68;;
22995;SDS011;11664;49.774;8.650;2023-03-01T15:38:57;9.68;;;6.15;;
22995;SDS011;11664;49.774;8.650;2023-03-01T15:41:46;7.50;;;6.05;;
22995;SDS011;11664;49.774;8.650;2023-03-01T15:44:16;8.40;;;6.60;;
22995;SDS011;11664;49.774;8.650;2023-03-01T15:46:52;9.05;;;6.45;;
22995;SDS011;11664;49.774;8.650;2023-03-01T15:52:05;9.88;;;6.75;;
22995;SDS011;11664;49.774;8.650;2023-03-01T15:54:46;13.82;;;7.20;;
22995;SDS011;11664;49.774;8.650;2023-03-01T15:57:15;7.50;;;5.90;;
22995;SDS011;11664;49.774;8.650;2023-03-01T15:59:43;11.45;;;7.18;;
22995;SDS011;11664;49.774;8.650;2023-03-01T16:02:12;8.63;;;7.10;;
22995;SDS011;11664;49.774;8.650;2023-03-01T16:04:41;12.10;;;5.50;;
22995;SDS011;11664;49.774;8.650;2023-03-01T16:07:16;7.60;;;6.72;;
22995;SDS011;11664;49.774;8.650;2023-03-01T16:09:45;11.25;;;6.35;;
22995;SDS011;11664;49.774;8.650;2023-03-01T16:12:23;7.68;;;5.35;;
22995;SDS011;11664;49.774;8.650;2023-03-01T16:14:52;6.78;;;5.72;;
22995;SDS011;11664;49.774;8.650;2023-03-01T16:17:22;6.63;;;5.13;;
22995;SDS011;11664;49.774;8.650;2023-03-01T16:19:47;8.77;;;6.10;;
22995;SDS011;11664;49.774;8.650;2023-03-01T16:22:16;8.70;;;6.18;;
22995;SDS011;11664;49.774;8.650;2023-03-01T16:24:58;9.70;;;7.38;;
22995;SDS011;11664;49.774;8.650;2023-03-01T16:27:26;8.75;;;6.15;;
22995;SDS011;11664;49.774;8.650;2023-03-01T16:30:11;10.80;;;6.30;;
22995;SDS011;11664;49.774;8.650;2023-03-01T16:32:38;9.82;;;6.70;;
22995;SDS011;11664;49.774;8.650;2023-03-01T16:35:24;12.60;;;6.07;;
22995;SDS011;11664;49.774;8.650;2023-03-01T16:37:53;9.55;;;6.25;;
22995;SDS011;11664;49.774;8.650;2023-03-01T16:40:23;9.73;;;6.35;;
22995;SDS011;11664;49.774;8.650;2023-03-01T16:42:58;12.63;;;6.93;;
22995;SDS011;11664;49.774;8.650;2023-03-01T16:45:26;9.13;;;5.85;;
22995;SDS011;11664;49.774;8.650;2023-03-01T16:47:53;9.90;;;7.20;;
22995;SDS011;11664;49.774;8.650;2023-03-01T16:50:19;11.15;;;6.45;;
22995;SDS011;11664;49.774;8.650;2023-03-01T16:52:50;12.32;;;6.35;;
22995;SDS011;11664;49.774;8.650;2023-03-01T16:55:16;10.35;;;7.32;;
22995;SDS011;11664;49.774;8.650;2023-03-01T16:57:45;9.52;;;6.32;;
22995;SDS011;11664;49.774;8.650;2023-03-01T17:00:17;10.55;;;7.45;;
22995;SDS011;11664;49.774;8.650;2023-03-01T17:02:43;7.88;;;6.57;;
22995;SDS011;11664;49.774;8.650;2023-03-01T17:05:15;12.38;;;7.40;;
22995;SDS011;11664;49.774;8.650;2023-03-01T17:07:45;10.48;;;7.03;;
22995;SDS011;11664;49.774;8.650;2023-03-01T17:10:10;12.55;;;7.68;;
22995;SDS011;11664;49.774;8.650;2023-03-01T17:12:47;15.15;;;7.07;;
22995;SDS011;11664;49.774;8.650;2023-03-01T17:15:17;12.98;;;7.93;;
22995;SDS011;11664;49.774;8.650;2023-03-01T17:17:43;12.35;;;7.38;;
22995;SDS011;11664;49.774;8.650;2023-03-01T17:20:09;15.32;;;8.20;;
22995;SDS011;11664;49.774;8.650;2023-03-01T17:22:38;10.77;;;7.10;;
22995;SDS011;11664;49.774;8.650;2023-03-01T17:25:15;11.88;;;8.35;;
22995;SDS011;11664;49.774;8.650;2023-03-01T17:27:41;12.13;;;7.45;;
22995;SDS011;11664;49.774;8.650;2023-03-01T17:30:13;12.85;;;7.93;;
22995;SDS011;11664;49.774;8.650;2023-03-01T17:32:45;11.82;;;7.70;;
22995;SDS011;11664;49.774;8.650;2023-03-01T17:35:14;12.55;;;7.05;;
22995;SDS011;11664;49.774;8.650;2023-03-01T17:37:42;12.15;;;7.85;;
22995;SDS011;11664;49.774;8.650;2023-03-01T17:40:13;12.48;;;7.38;;
22995;SDS011;11664;49.774;8.650;2023-03-01T17:42:48;20.23;;;7.00;;
22995;SDS011;11664;49.774;8.650;2023-03-01T17:45:13;11.77;;;7.15;;
22995;SDS011;11664;49.774;8.650;2023-03-01T17:47:39;11.35;;;6.90;;
22995;SDS011;11664;49.774;8.650;2023-03-01T17:50:08;11.05;;;7.18;;
22995;SDS011;11664;49.774;8.650;2023-03-01T17:52:33;11.07;;;6.60;;
22995;SDS011;11664;49.774;8.650;2023-03-01T17:55:21;10.35;;;6.57;;
22995;SDS011;11664;49.774;8.650;2023-03-01T17:57:46;21.48;;;11.70;;
22995;SDS011;11664;49.774;8.650;2023-03-01T18:00:16;17.33;;;7.95;;
22995;SDS011;11664;49.774;8.650;2023-03-01T18:02:45;49.58;;;20.88;;
22995;SDS011;11664;49.774;8.650;2023-03-01T18:05:10;20.25;;;10.05;;